Time;durP1;ratioP1;P1;durP2;ratioP2;P2;SDS_P1;SDS_P2;PMS_P1;PMS_P2;Temp;Humidity;BMP_temperature;BMP_pressure;BME280_temperature;BME280_humidity;BME280_pressure;Samples;Min_cycle;Max_cycle;Signal;HPM_P1;HPM_P2
2023/10/08 00:04:18;;;;;;;0.08;0.08;;;;;;;-145.06;100.00;56003.16;10409844;28;20426;-67
2023/10/08 00:09:20;;;;;;;0.00;0.00;;;;;;;-145.06;100.00;56011.25;10422761;28;20017;-67
2023/10/08 00:14:21;;;;;;;0.00;0.00;;;;;;;-145.06;100.00;55993.03;10445448;28;20486;-67
2023/10/08 00:19:21;;;;;;;0.10;0.10;;;;;;;-145.06;100.00;55991.00;10427846;28;20022;-67
2023/10/08 00:24:26;;;;;;;0.10;0.10;;;;;;;-145.06;100.00;55982.91;10409808;28;20029;-67
2023/10/08 00:29:27;;;;;;;0.00;0.00;;;;;;;-145.06;100.00;56003.16;10435913;28;20021;-67
2023/10/08 00:34:27;;;;;;;0.10;0.10;;;;;;;-145.06;100.00;55999.09;10414185;28;20029;-67
2023/10/08 00:39:33;;;;;;;0.10;0.10;;;;;;;-145.06;100.00;55960.59;10419441;28;20287;-67
2023/10/08 00:44:57;;;;;;;0.10;0.10;;;;;;;-145.06;100.00;55995.06;10417007;28;20055;-67
2023/10/08 00:50:09;;;;;;;0.10;0.10;;;;;;;-145.06;100.00;55970.75;10428193;28;20041;-67
2023/10/08 00:55:11;;;;;;;0.10;0.10;;;;;;;-145.06;100.00;56011.25;10426948;28;20036;-67
2023/10/08 01:00:17;;;;;;;0.10;0.10;;;;;;;-145.06;100.00;56009.25;10436233;28;20483;-67
2023/10/08 01:05:19;;;;;;;0.10;0.10;;;;;;;-145.06;100.00;56013.28;10406340;28;20021;-67
2023/10/08 01:10:20;;;;;;;0.10;0.10;;;;;;;-145.06;100.00;55952.50;10417739;28;20506;-67
2023/10/08 01:15:31;;;;;;;0.10;0.10;;;;;;;-145.06;100.00;56005.19;10419779;28;20028;-67
2023/10/08 01:20:35;;;;;;;0.10;0.10;;;;;;;-145.06;100.00;55986.94;10441737;28;20025;-67
2023/10/08 01:25:37;;;;;;;0.10;0.10;;;;;;;-145.06;100.00;55962.63;10414638;28;20386;-67
2023/10/08 01:30:41;;;;;;;0.00;0.00;;;;;;;-145.06;100.00;55991.00;10418274;28;20018;-67
2023/10/08 01:35:42;;;;;;;0.00;0.00;;;;;;;-145.06;100.00;55988.97;10418291;28;20079;-67
2023/10/08 01:40:43;;;;;;;0.10;0.10;;;;;;;-145.06;100.00;55997.09;10447101;28;20299;-67
2023/10/08 01:45:48;;;;;;;0.10;0.10;;;;;;;-145.06;100.00;55982.91;10425614;28;20029;-67
2023/10/08 01:50:48;;;;;;;0.10;0.10;;;;;;;-145.06;100.00;56005.19;10418329;28;20112;-67
2023/10/08 01:55:48;;;;;;;0.10;0.10;;;;;;;-145.06;100.00;55984.94;10425472;28;20115;-67
2023/10/08 02:00:49;;;;;;;0.10;0.10;;;;;;;-145.06;100.00;55999.09;10425908;28;20020;-67
2023/10/08 02:05:53;;;;;;;0.10;0.10;;;;;;;-145.06;100.00;55982.91;10418790;28;20629;-67
2023/10/08 02:10:53;;;;;;;0.10;0.10;;;;;;;-145.06;100.00;55968.72;10417604;28;20491;-68
2023/10/08 02:15:54;;;;;;;0.00;0.00;;;;;;;-145.06;100.00;55974.78;10424139;28;20105;-68
2023/10/08 02:20:54;;;;;;;0.10;0.10;;;;;;;-145.06;100.00;55950.47;10427853;28;20017;-68
2023/10/08 02:25:54;;;;;;;0.10;0.10;;;;;;;-145.06;100.00;55974.78;10423522;28;20021;-68
2023/10/08 02:30:55;;;;;;;0.10;0.10;;;;;;;-145.06;100.00;55946.44;10424978;28;20024;-68
2023/10/08 02:35:56;;;;;;;0.00;0.00;;;;;;;-145.06;100.00;55956.56;10423881;28;20467;-68
2023/10/08 02:40:56;;;;;;;0.10;0.10;;;;;;;-145.06;100.00;55952.50;10431086;28;20070;-67
2023/10/08 02:45:59;;;;;;;0.10;0.10;;;;;;;-145.06;100.00;55974.78;10416125;28;20030;-67
2023/10/08 02:51:07;;;;;;;0.10;0.10;;;;;;;-145.06;100.00;55916.03;10421348;28;20478;-68
2023/10/08 02:56:13;;;;;;;0.10;0.10;;;;;;;-145.06;100.00;55930.22;10419349;28;20025;-68
2023/10/08 03:01:13;;;;;;;0.00;0.00;;;;;;;-145.06;100.00;55914.00;10420697;28;20029;-68
2023/10/08 03:06:14;;;;;;;0.10;0.10;;;;;;;-145.06;100.00;55942.38;10412322;28;20454;-68
2023/10/08 03:11:17;;;;;;;0.10;0.10;;;;;;;-145.06;100.00;55954.53;10421582;28;20052;-68
2023/10/08 03:16:21;;;;;;;0.10;0.10;;;;;;;-145.06;100.00;55936.28;10425981;28;20021;-67
2023/10/08 03:21:42;;;;;;;0.10;0.10;;;;;;;-145.06;100.00;55936.28;10415187;28;20026;-68
2023/10/08 03:26:45;;;;;;;0.10;0.10;;;;;;;-145.06;100.00;55938.31;10409936;28;20095;-67
2023/10/08 03:36:50;;;;;;;0.00;0.00;;;;;;;-145.06;100.00;55891.72;10427741;28;20048;-67
2023/10/08 03:42:05;;;;;;;0.00;0.00;;;;;;;-145.06;100.00;55924.13;10407839;28;20022;-67
2023/10/08 03:47:10;;;;;;;0.10;0.10;;;;;;;-145.06;100.00;55962.63;10405930;28;20119;-67
2023/10/08 03:52:11;;;;;;;0.10;0.10;;;;;;;-145.06;100.00;55936.28;10414618;28;20438;-67
2023/10/08 03:57:19;;;;;;;0.10;0.10;;;;;;;-145.06;100.00;55911.97;10426014;28;20029;-67
2023/10/08 04:03:07;;;;;;;0.10;0.10;;;;;;;-145.06;100.00;55911.97;10411177;28;20014;-68
2023/10/08 04:13:01;;;;;;;0.00;0.00;;;;;;;-145.06;100.00;55922.13;10412483;28;20018;-68
2023/10/08 04:18:02;;;;;;;0.10;0.10;;;;;;;-145.06;100.00;55958.59;10421799;28;20020;-68
2023/10/08 04:23:18;;;;;;;0.10;0.10;;;;;;;-145.06;100.00;55950.47;10421365;28;20406;-67
2023/10/08 04:28:20;;;;;;;0.00;0.00;;;;;;;-145.06;100.00;55907.94;10422528;28;20427;-68
2023/10/08 04:33:20;;;;;;;0.10;0.10;;;;;;;-145.06;100.00;55970.75;10425937;28;20036;-67
2023/10/08 04:38:23;;;;;;;0.00;0.00;;;;;;;-145.06;100.00;55948.44;10416526;28;20385;-67
2023/10/08 04:43:30;;;;;;;0.10;0.10;;;;;;;-145.06;100.00;55938.31;10420455;28;20115;-67
2023/10/08 04:48:32;;;;;;;0.00;0.00;;;;;;;-145.06;100.00;55948.44;10424466;28;20048;-67
2023/10/08 04:53:36;;;;;;;0.00;0.00;;;;;;;-145.06;100.00;55936.28;10420371;28;20033;-67
2023/10/08 04:58:36;;;;;;;0.10;0.10;;;;;;;-145.06;100.00;55918.06;10422980;28;20396;-68
2023/10/08 05:03:43;;;;;;;0.10;0.10;;;;;;;-145.06;100.00;55911.97;10431337;28;20029;-67
2023/10/08 05:08:58;;;;;;;0.10;0.10;;;;;;;-145.06;100.00;55930.22;10424359;28;20395;-67
2023/10/08 05:14:27;;;;;;;0.10;0.10;;;;;;;-145.06;100.00;55926.16;10434491;28;20441;-67
2023/10/08 05:19:37;;;;;;;0.07;0.07;;;;;;;-145.06;100.00;55926.16;10429601;28;20483;-67
2023/10/08 05:24:38;;;;;;;0.10;0.10;;;;;;;-145.06;100.00;55889.69;10419289;28;20390;-67
2023/10/08 05:30:15;;;;;;;0.10;0.10;;;;;;;-145.06;100.00;55930.22;10430474;28;20096;-67
2023/10/08 05:46:19;;;;;;;0.05;0.05;;;;;;;-145.06;100.00;55889.69;10426309;28;20022;-67
2023/10/08 05:51:33;;;;;;;0.10;0.10;;;;;;;-145.06;100.00;55928.19;10413071;28;20033;-67
2023/10/08 05:56:52;;;;;;;0.00;0.00;;;;;;;-145.06;100.00;55895.78;10413512;28;20014;-67
2023/10/08 06:02:05;;;;;;;0.10;0.10;;;;;;;-145.06;100.00;55930.22;10414489;28;20155;-67
2023/10/08 06:07:16;;;;;;;0.00;0.00;;;;;;;-145.06;100.00;55924.13;10415929;28;20506;-67
2023/10/08 06:12:29;;;;;;;0.00;0.00;;;;;;;-145.06;100.00;55804.59;10417663;28;20029;-67
2023/10/08 06:23:07;;;;;;;0.10;0.10;;;;;;;-145.06;100.00;55970.75;10405532;28;20136;-67
2023/10/08 06:28:09;;;;;;;0.10;0.10;;;;;;;-145.06;100.00;56045.72;10409120;28;20104;-67
2023/10/08 06:33:10;;;;;;;0.10;0.10;;;;;;;-145.06;94.14;56151.06;10420498;28;20032;-67
2023/10/08 06:38:14;;;;;;;0.00;0.00;;;;;;;-145.06;89.38;56209.84;10413870;28;20475;-67
2023/10/08 06:43:16;;;;;;;0.10;0.10;;;;;;;-145.06;84.20;56343.59;10418037;28;20654;-67
2023/10/08 06:48:29;;;;;;;0.00;0.00;;;;;;;-145.06;78.07;56436.81;10416110;28;20025;-67
2023/10/08 06:53:29;;;;;;;0.10;0.10;;;;;;;-145.06;76.87;56489.50;10409916;28;20032;-67
2023/10/08 06:58:34;;;;;;;0.10;0.10;;;;;;;-145.06;71.76;56631.34;10420020;28;20025;-67
2023/10/08 07:03:40;;;;;;;0.00;0.00;;;;;;;-145.06;71.83;56641.47;10410229;28;20331;-67
2023/10/08 07:08:42;;;;;;;0.10;0.10;;;;;;;-145.06;67.75;56748.88;10407019;28;20368;-67
2023/10/08 07:14:03;;;;;;;0.00;0.00;;;;;;;-145.06;61.09;56955.59;10407115;28;20033;-68
2023/10/08 07:19:05;;;;;;;0.10;0.10;;;;;;;-145.06;61.05;57016.41;10413254;28;20029;-68
2023/10/08 07:24:15;;;;;;;0.10;0.10;;;;;;;-145.06;58.69;57158.28;10410440;28;20028;-65
2023/10/08 07:29:17;;;;;;;0.10;0.10;;;;;;;-145.06;58.50;57170.44;10412247;28;20021;-65
2023/10/08 07:34:18;;;;;;;0.10;0.10;;;;;;;-145.06;55.82;57251.53;10409437;28;20053;-66
2023/10/08 07:39:25;;;;;;;0.10;0.10;;;;;;;-145.06;55.21;57369.06;10412407;28;20029;-65
2023/10/08 07:44:30;;;;;;;0.10;0.10;;;;;;;-145.06;52.10;57456.25;10419736;28;20033;-65
2023/10/08 07:49:31;;;;;;;0.10;0.10;;;;;;;-145.06;47.19;57533.25;10410815;28;20476;-69
2023/10/08 07:54:35;;;;;;;0.10;0.10;;;;;;;-145.06;44.88;57478.53;10411544;28;20009;-70
2023/10/08 07:59:41;;;;;;;0.10;0.10;;;;;;;-145.06;44.70;57385.28;10410676;28;20065;-70
2023/10/08 08:04:43;;;;;;;0.10;0.10;;;;;;;-145.06;44.85;57328.53;10407728;28;20022;-67
2023/10/08 08:09:50;;;;;;;;;;;;;;;-145.06;46.94;57257.59;10413237;28;20360;-67
2023/10/08 08:14:52;;;;;;;0.10;0.10;;;;;;;-145.06;48.72;57263.69;10402954;28;19913;-67
2023/10/08 08:19:52;;;;;;;0.10;0.10;;;;;;;-145.06;46.36;57255.56;10401410;28;20057;-67
2023/10/08 08:25:15;;;;;;;0.10;0.10;;;;;;;-145.06;49.65;57125.84;10404761;28;20116;-67
2023/10/08 08:30:18;;;;;;;0.05;0.05;;;;;;;-145.06;48.10;57142.06;10401430;28;20020;-66
2023/10/08 08:35:19;;;;;;;0.10;0.10;;;;;;;-145.06;46.89;57140.03;10405808;28;20021;-66
2023/10/08 08:40:24;;;;;;;0.00;0.00;;;;;;;-145.06;47.26;57105.59;10403707;28;20544;-66
2023/10/08 08:45:25;;;;;;;0.10;0.10;;;;;;;-145.06;49.44;57048.84;10405447;28;20027;-67
2023/10/08 08:50:26;;;;;;;0.10;0.10;;;;;;;-145.06;49.19;57052.88;10402481;28;20022;-66
2023/10/08 08:55:28;;;;;;;0.00;0.00;;;;;;;-145.06;49.27;57032.63;10403275;28;20487;-67
2023/10/08 09:00:30;;;;;;;0.10;0.10;;;;;;;-145.06;49.96;56973.84;10405972;28;20025;-66
2023/10/08 09:05:40;;;;;;;0.00;0.00;;;;;;;-145.06;50.25;56917.09;10403641;28;20108;-66
2023/10/08 09:10:51;;;;;;;0.00;0.00;;;;;;;-145.06;53.05;56880.63;10402465;28;20025;-66
2023/10/08 09:15:51;;;;;;;0.10;0.10;;;;;;;-145.06;50.90;56906.97;10400882;28;20025;-66
2023/10/08 09:20:52;;;;;;;0.00;0.00;;;;;;;-145.06;54.64;56807.66;10403667;28;20026;-66
2023/10/08 09:26:02;;;;;;;0.00;0.00;;;;;;;-145.06;54.12;56840.09;10403453;28;20030;-66
2023/10/08 09:31:04;;;;;;;0.10;0.10;;;;;;;-145.06;53.66;56829.94;10411768;28;20152;-66
2023/10/08 09:36:10;;;;;;;0.00;0.00;;;;;;;-145.06;52.77;56850.22;10413984;28;20160;-66
2023/10/08 09:41:12;;;;;;;0.10;0.10;;;;;;;-145.06;53.68;56850.22;10409135;28;20059;-65
2023/10/08 09:46:19;;;;;;;0.05;0.05;;;;;;;-145.06;54.32;56811.72;10409403;28;20436;-66
2023/10/08 09:51:20;;;;;;;0.10;0.10;;;;;;;-145.06;53.58;56795.50;10411759;28;20428;-65
2023/10/08 09:56:23;;;;;;;0.00;0.00;;;;;;;-145.06;55.79;56840.09;10409226;28;20025;-65
2023/10/08 10:01:26;;;;;;;0.10;0.10;;;;;;;-145.06;52.93;56801.56;10411548;28;20052;-65
2023/10/08 10:06:29;;;;;;;0.00;0.00;;;;;;;-145.06;53.96;56817.78;10411440;28;20057;-65
2023/10/08 10:11:29;;;;;;;0.10;0.10;;;;;;;-145.06;58.34;56757.00;10410486;28;20017;-64
2023/10/08 10:16:30;;;;;;;0.00;0.00;;;;;;;-145.06;56.96;56781.31;10410612;28;20750;-64
2023/10/08 10:21:32;;;;;;;0.10;0.10;;;;;;;-145.06;52.57;56809.69;10412371;28;20029;-64
2023/10/08 10:26:35;;;;;;;0.00;0.00;;;;;;;-145.06;53.68;56817.78;10411990;28;20037;-64
2023/10/08 10:31:36;;;;;;;0.10;0.10;;;;;;;-145.06;58.96;56694.16;10409776;28;20057;-63
2023/10/08 10:36:43;;;;;;;0.00;0.00;;;;;;;-145.06;56.11;56718.50;10412547;28;20021;-64
2023/10/08 10:41:48;;;;;;;0.10;0.10;;;;;;;-145.06;55.88;56716.47;10407451;28;20086;-65
2023/10/08 10:46:51;;;;;;;0.03;0.03;;;;;;;-145.06;58.08;56651.59;10409302;28;20028;-64
2023/10/08 10:52:04;;;;;;;0.10;0.10;;;;;;;-145.06;56.46;56655.66;10408536;28;20033;-65
2023/10/08 10:57:17;;;;;;;0.10;0.10;;;;;;;-145.06;55.36;56716.47;10410814;28;20028;-64
2023/10/08 11:02:30;;;;;;;0.10;0.10;;;;;;;-145.06;54.79;56704.31;10407338;28;20108;-64
2023/10/08 11:07:33;;;;;;;0.10;0.10;;;;;;;-145.06;59.23;56657.69;10410107;28;20017;-64
2023/10/08 11:12:45;;;;;;;0.07;0.07;;;;;;;-145.06;55.60;56716.47;10409690;28;20044;-64
2023/10/08 11:17:49;;;;;;;0.00;0.00;;;;;;;-145.06;58.72;56667.81;10391422;28;20022;-65
2023/10/08 11:22:53;;;;;;;0.10;0.10;;;;;;;-145.06;57.12;56651.59;10404082;28;20506;-64
2023/10/08 11:28:02;;;;;;;0.00;0.00;;;;;;;-145.06;53.37;56744.84;10407573;28;20033;-64
2023/10/08 11:33:06;;;;;;;0.00;0.00;;;;;;;-145.06;51.22;56761.03;10406478;28;20025;-65
2023/10/08 11:38:14;;;;;;;0.10;0.10;;;;;;;-145.06;49.19;56793.47;10406803;28;20029;-65
2023/10/08 11:43:18;;;;;;;0.10;0.10;;;;;;;-145.06;52.02;56752.94;10403436;28;20029;-65
2023/10/08 11:48:28;;;;;;;0.10;0.10;;;;;;;-145.06;52.13;56783.34;10405592;28;20033;-65
2023/10/08 11:53:28;;;;;;;0.00;0.00;;;;;;;-145.06;53.13;56744.84;10407125;28;20028;-64
2023/10/08 11:58:47;;;;;;;0.10;0.10;;;;;;;-145.06;55.49;56732.66;10403702;28;20380;-65
2023/10/08 12:03:50;;;;;;;0.10;0.10;;;;;;;-145.06;52.41;56724.56;10406517;28;20033;-65
2023/10/08 12:08:53;;;;;;;0.00;0.00;;;;;;;-145.06;52.95;56777.25;10404894;28;20013;-65
2023/10/08 12:13:53;;;;;;;0.10;0.10;;;;;;;-145.06;57.23;56732.66;10405590;28;20047;-64
2023/10/08 12:18:58;;;;;;;0.00;0.00;;;;;;;-145.06;59.62;56722.53;10404639;28;20314;-65
2023/10/08 12:23:59;;;;;;;0.00;0.00;;;;;;;-145.06;54.54;56724.56;10403441;28;20387;-65
2023/10/08 12:29:00;;;;;;;0.10;0.10;;;;;;;-145.06;52.47;56728.63;10405167;28;20025;-65
2023/10/08 12:34:00;;;;;;;0.10;0.10;;;;;;;-145.06;51.24;56746.84;10404269;28;20180;-65
2023/10/08 12:39:08;;;;;;;0.10;0.10;;;;;;;-145.06;57.97;56647.56;10407293;28;20104;-65
2023/10/08 12:44:08;;;;;;;0.10;0.10;;;;;;;-145.06;61.65;56615.13;10407007;28;20026;-65
2023/10/08 12:49:09;;;;;;;0.00;0.00;;;;;;;-145.06;61.73;56635.41;10404653;28;20028;-65
2023/10/08 12:54:14;;;;;;;0.00;0.00;;;;;;;-145.06;61.43;56619.19;10404376;28;20066;-65
2023/10/08 12:59:20;;;;;;;0.10;0.10;;;;;;;-145.06;64.70;56633.38;10403563;28;20025;-65
2023/10/08 13:04:34;;;;;;;0.10;0.10;;;;;;;-145.06;64.65;56611.06;10411041;28;20429;-65
2023/10/08 13:09:36;;;;;;;0.10;0.10;;;;;;;-145.06;63.83;56611.06;10413732;28;20025;-65
2023/10/08 13:14:37;;;;;;;0.00;0.00;;;;;;;-145.06;66.34;56609.06;10413714;28;20063;-64
2023/10/08 13:19:37;;;;;;;0.10;0.10;;;;;;;-145.06;63.27;56659.72;10411750;28;20576;-65
2023/10/08 13:24:39;;;;;;;0.03;0.03;;;;;;;-145.06;64.33;56653.63;10414249;28;20288;-64
2023/10/08 13:29:39;;;;;;;0.00;0.00;;;;;;;-145.06;63.58;56645.53;10398963;28;20017;-65
2023/10/08 13:34:39;;;;;;;0.03;0.03;;;;;;;-145.06;57.05;56716.47;10408367;28;20029;-64
2023/10/08 13:39:40;;;;;;;0.00;0.00;;;;;;;-145.06;61.77;56653.63;10412255;28;20031;-64
2023/10/08 13:44:43;;;;;;;0.00;0.00;;;;;;;-145.06;63.48;56651.59;10412427;28;20028;-64
2023/10/08 13:49:46;;;;;;;0.03;0.03;;;;;;;-145.06;60.75;56671.88;10411692;28;20013;-64
2023/10/08 13:54:51;;;;;;;0.00;0.00;;;;;;;-145.06;63.94;56679.97;10411523;28;20025;-64
2023/10/08 13:59:53;;;;;;;0.10;0.10;;;;;;;-145.06;60.44;56708.34;10411955;28;20073;-64
2023/10/08 14:04:53;;;;;;;0.10;0.10;;;;;;;-145.06;64.95;56649.59;10412623;28;20117;-64
2023/10/08 14:09:53;;;;;;;0.10;0.10;;;;;;;-145.06;67.48;56661.75;10411577;28;20033;-64
2023/10/08 14:14:54;;;;;;;0.00;0.00;;;;;;;-145.06;66.66;56619.19;10412627;28;20053;-64
2023/10/08 14:19:59;;;;;;;0.10;0.10;;;;;;;-145.06;68.40;56625.25;10413088;28;20379;-64
2023/10/08 14:25:00;;;;;;;0.00;0.00;;;;;;;-145.06;69.12;56568.53;10412466;28;20264;-64
2023/10/08 14:30:04;;;;;;;0.00;0.00;;;;;;;-145.06;72.12;56544.19;10412395;28;20032;-64
2023/10/08 14:45:46;;;;;;;0.00;0.00;;;;;;;-145.06;74.63;56505.69;10397275;28;20022;-64
2023/10/08 14:50:47;;;;;;;0.00;0.00;;;;;;;-145.06;78.48;56473.28;10400781;28;20491;-65
2023/10/08 14:55:48;;;;;;;0.10;0.10;;;;;;;-145.06;79.19;56469.22;10395811;28;20129;-65
2023/10/08 15:00:49;;;;;;;0.10;0.10;;;;;;;-145.06;77.59;56485.44;10399809;28;20117;-65
2023/10/08 15:05:49;;;;;;;0.00;0.00;;;;;;;-145.06;77.54;56455.03;10401392;28;20104;-65
2023/10/08 15:10:50;;;;;;;0.10;0.10;;;;;;;-145.06;77.88;56489.50;10398742;28;20022;-65
2023/10/08 15:15:50;;;;;;;0.00;0.00;;;;;;;-145.06;78.61;56455.03;10401444;28;20108;-65
2023/10/08 15:20:52;;;;;;;0.03;0.03;;;;;;;-145.06;75.89;56493.53;10399065;28;20065;-65
2023/10/08 15:25:53;;;;;;;0.00;0.00;;;;;;;-145.06;76.04;56499.63;10397265;28;20191;-65
2023/10/08 15:30:54;;;;;;;0.10;0.10;;;;;;;-145.06;79.26;56440.84;10398275;28;20100;-65
2023/10/08 15:35:54;;;;;;;0.10;0.10;;;;;;;-145.06;82.04;56440.84;10396085;28;20673;-65
2023/10/08 15:40:55;;;;;;;0.10;0.10;;;;;;;-145.06;83.77;56418.56;10403010;28;20056;-64
2023/10/08 15:45:55;;;;;;;0.05;0.05;;;;;;;-145.06;83.24;56420.59;10399630;28;20029;-65
2023/10/08 15:50:55;;;;;;;0.10;0.10;;;;;;;-145.06;75.52;56448.97;10394733;28;20025;-65
2023/10/08 15:55:56;;;;;;;0.00;0.00;;;;;;;-145.06;77.17;56453.00;10404326;28;20476;-65
2023/10/08 16:00:57;;;;;;;0.10;0.10;;;;;;;-145.06;78.51;56469.22;10398290;28;20025;-65
2023/10/08 16:05:57;;;;;;;0.10;0.10;;;;;;;-145.06;79.45;56457.06;10401301;28;20513;-65
2023/10/08 16:10:57;;;;;;;0.00;0.00;;;;;;;-145.06;85.34;56380.06;10397913;28;20013;-65
2023/10/08 16:15:59;;;;;;;0.00;0.00;;;;;;;-145.06;85.09;56369.94;10398051;28;20036;-65
2023/10/08 16:21:00;;;;;;;0.10;0.10;;;;;;;-145.06;86.13;56400.31;10393923;28;20120;-65
2023/10/08 16:26:00;;;;;;;0.10;0.10;;;;;;;-145.06;86.65;56384.13;10394555;28;20029;-65
2023/10/08 16:31:00;;;;;;;0.10;0.10;;;;;;;-145.06;80.39;56428.69;10403989;28;20036;-65
2023/10/08 16:36:06;;;;;;;0.10;0.10;;;;;;;-145.06;82.49;56418.56;10399753;28;20039;-65
2023/10/08 16:41:07;;;;;;;0.00;0.00;;;;;;;-145.06;91.15;56323.31;10403438;28;20105;-65
2023/10/08 16:46:07;;;;;;;0.03;0.03;;;;;;;-145.06;94.92;56301.03;10401012;28;20467;-65
2023/10/08 16:51:07;;;;;;;0.10;0.10;;;;;;;-145.06;94.36;56292.91;10401423;28;20025;-65
2023/10/08 16:56:08;;;;;;;0.10;0.10;;;;;;;-145.06;94.66;56290.91;10403673;28;20025;-65
2023/10/08 17:01:11;;;;;;;0.10;0.10;;;;;;;-145.06;100.00;56256.44;10404833;28;20048;-65
2023/10/08 17:06:11;;;;;;;0.10;0.10;;;;;;;-145.06;100.00;56199.72;10401268;28;20033;-64
2023/10/08 17:11:13;;;;;;;0.00;0.00;;;;;;;-145.06;100.00;56203.75;10399458;28;20018;-64
2023/10/08 17:16:13;;;;;;;0.10;0.10;;;;;;;-145.06;100.00;56173.38;10402035;28;20090;-65
2023/10/08 17:21:16;;;;;;;0.10;0.10;;;;;;;-145.06;100.00;56222.00;10397971;28;20114;-65
2023/10/08 17:26:17;;;;;;;0.10;0.10;;;;;;;-145.06;100.00;56201.75;10400531;28;20264;-65
2023/10/08 17:31:17;;;;;;;0.10;0.10;;;;;;;-145.06;100.00;56234.16;10402035;28;20387;-65
2023/10/08 17:36:17;;;;;;;0.00;0.00;;;;;;;-145.06;100.00;56262.53;10404026;28;20471;-65
2023/10/08 17:41:18;;;;;;;0.10;0.10;;;;;;;-145.06;100.00;56242.25;10404491;28;20025;-65
2023/10/08 17:46:19;;;;;;;0.10;0.10;;;;;;;-145.06;100.00;56236.19;10401646;28;20472;-65
2023/10/08 17:51:20;;;;;;;0.10;0.10;;;;;;;-145.06;100.00;56201.75;10408660;28;20033;-65
2023/10/08 17:56:21;;;;;;;0.10;0.10;;;;;;;-145.06;100.00;56187.56;10412080;28;20075;-65
2023/10/08 18:01:21;;;;;;;0.10;0.10;;;;;;;-145.06;100.00;56197.69;10384870;28;20026;-65
2023/10/08 18:06:22;;;;;;;0.10;0.10;;;;;;;-145.06;100.00;56248.34;10412316;28;20025;-65
2023/10/08 18:11:23;;;;;;;0.10;0.10;;;;;;;-145.06;100.00;56201.75;10411805;28;20017;-65
2023/10/08 18:16:24;;;;;;;0.10;0.10;;;;;;;-145.06;100.00;56219.97;10411978;28;20026;-65
2023/10/08 18:21:24;;;;;;;0.10;0.10;;;;;;;-145.06;100.00;56250.38;10399042;28;20026;-64
2023/10/08 18:26:26;;;;;;;0.10;0.10;;;;;;;-145.06;100.00;56268.59;10401994;28;20021;-65
2023/10/08 18:31:28;;;;;;;0.10;0.10;;;;;;;-145.06;98.19;56244.28;10398536;28;20034;-65
2023/10/08 18:36:28;;;;;;;0.10;0.10;;;;;;;-145.06;95.71;56288.88;10397164;28;20455;-65
2023/10/08 18:41:29;;;;;;;0.10;0.10;;;;;;;-145.06;92.19;56329.41;10402481;28;20033;-64
2023/10/08 18:46:29;;;;;;;0.10;0.10;;;;;;;-145.06;100.00;56262.53;10395093;28;20048;-64
2023/10/08 18:51:30;;;;;;;0.10;0.10;;;;;;;-145.06;100.00;56181.47;10404387;28;20544;-64
2023/10/08 18:56:30;;;;;;;0.10;0.10;;;;;;;-145.06;100.00;56222.00;10403743;28;20064;-64
2023/10/08 19:01:31;;;;;;;0.10;0.10;;;;;;;-145.06;100.00;56153.09;10406130;28;20018;-65
2023/10/08 19:06:31;;;;;;;0.10;0.10;;;;;;;-145.06;100.00;56116.63;10403779;28;20021;-65
2023/10/08 19:11:32;;;;;;;0.10;0.10;;;;;;;-145.06;100.00;56151.06;10402984;28;20022;-65
2023/10/08 19:16:33;;;;;;;0.10;0.10;;;;;;;-145.06;100.00;56165.25;10399291;28;20109;-65
2023/10/08 19:21:37;;;;;;;0.10;0.10;;;;;;;-145.06;100.00;56096.38;10405216;28;20430;-65
2023/10/08 19:26:37;;;;;;;0.10;0.10;;;;;;;-145.06;100.00;56128.78;10407974;28;20026;-64
2023/10/08 19:31:38;;;;;;;0.10;0.10;;;;;;;-145.06;100.00;56140.94;10398038;28;20021;-64
2023/10/08 19:36:39;;;;;;;0.10;0.10;;;;;;;-145.06;100.00;56189.56;10399038;28;20471;-65
2023/10/08 19:41:40;;;;;;;0.10;0.10;;;;;;;-145.06;100.00;56140.94;10403734;28;20022;-65
2023/10/08 19:46:40;;;;;;;0.10;0.10;;;;;;;-145.06;100.00;56140.94;10400386;28;20030;-65
2023/10/08 19:51:40;;;;;;;0.10;0.10;;;;;;;-145.06;100.00;56124.75;10405821;28;20022;-65
2023/10/08 19:56:40;;;;;;;0.07;0.07;;;;;;;-145.06;100.00;56153.09;10398251;28;20040;-65
2023/10/08 20:01:41;;;;;;;0.10;0.10;;;;;;;-145.06;100.00;56136.91;10402456;28;20025;-65
2023/10/08 20:06:42;;;;;;;0.10;0.10;;;;;;;-145.06;100.00;56116.63;10402503;28;20029;-65
2023/10/08 20:11:42;;;;;;;0.10;0.10;;;;;;;-145.06;100.00;56132.84;10378279;28;20076;-65
2023/10/08 20:16:43;;;;;;;0.10;0.10;;;;;;;-145.06;100.00;56116.63;10400974;28;20491;-65
2023/10/08 20:21:45;;;;;;;0.10;0.10;;;;;;;-145.06;100.00;56120.69;10398156;28;20482;-65
2023/10/08 20:26:45;;;;;;;0.00;0.00;;;;;;;-145.06;100.00;56130.81;10403405;28;20475;-65
2023/10/08 20:31:45;;;;;;;0.05;0.05;;;;;;;-145.06;100.00;56134.88;10400785;28;20025;-65
2023/10/08 20:36:46;;;;;;;0.10;0.10;;;;;;;-145.06;100.00;56138.91;10403815;28;20025;-65
2023/10/08 20:41:46;;;;;;;0.08;0.08;;;;;;;-145.06;100.00;56136.91;10401282;28;20136;-65
2023/10/08 20:46:47;;;;;;;0.10;0.10;;;;;;;-145.06;100.00;56110.56;10403623;28;20071;-65
2023/10/08 20:51:47;;;;;;;0.10;0.10;;;;;;;-145.06;100.00;56096.38;10402481;28;20013;-65
2023/10/08 20:56:49;;;;;;;0.10;0.10;;;;;;;-145.06;100.00;56155.13;10403997;28;20038;-65
2023/10/08 21:01:49;;;;;;;0.00;0.00;;;;;;;-145.06;100.00;56128.78;10405021;28;20026;-66
2023/10/08 21:06:50;;;;;;;0.00;0.00;;;;;;;-145.06;100.00;56124.75;10404080;28;20025;-66
2023/10/08 21:11:51;;;;;;;0.00;0.00;;;;;;;-145.06;100.00;56112.59;10405080;28;20479;-65
2023/10/08 21:16:54;;;;;;;0.10;0.10;;;;;;;-145.06;100.00;56114.59;10399772;28;20021;-65
2023/10/08 21:21:55;;;;;;;0.08;0.08;;;;;;;-145.06;100.00;56108.53;10404853;28;20026;-65
2023/10/08 21:26:55;;;;;;;0.10;0.10;;;;;;;-145.06;100.00;56108.53;10412157;28;20029;-65
2023/10/08 21:31:56;;;;;;;0.10;0.10;;;;;;;-145.06;100.00;56100.41;10412011;28;20044;-66
2023/10/08 21:36:56;;;;;;;0.10;0.10;;;;;;;-145.06;100.00;56108.53;10413473;28;20026;-66
2023/10/08 21:41:57;;;;;;;0.10;0.10;;;;;;;-145.06;100.00;56092.31;10412230;28;20017;-66
2023/10/08 21:46:57;;;;;;;0.00;0.00;;;;;;;-145.06;100.00;56094.34;10413480;28;20580;-66
2023/10/08 21:51:57;;;;;;;0.10;0.10;;;;;;;-145.06;100.00;56100.41;10411439;28;20534;-68
2023/10/08 21:56:58;;;;;;;0.00;0.00;;;;;;;-145.06;100.00;56055.84;10411746;28;20029;-66
2023/10/08 22:01:59;;;;;;;0.10;0.10;;;;;;;-145.06;100.00;56088.25;10413577;28;20029;-66
2023/10/08 22:07:05;;;;;;;0.10;0.10;;;;;;;-145.06;100.00;56094.34;10410334;28;20526;-66
2023/10/08 22:12:06;;;;;;;0.10;0.10;;;;;;;-145.06;100.00;56092.31;10405483;28;20013;-67
2023/10/08 22:17:12;;;;;;;0.10;0.10;;;;;;;-145.06;100.00;56092.31;10406257;28;20022;-67
2023/10/08 22:22:16;;;;;;;0.00;0.00;;;;;;;-145.06;100.00;56080.16;10404859;28;20021;-67
2023/10/08 22:27:27;;;;;;;;;;;;;;;-145.06;100.00;56100.41;10410928;28;20025;-67
2023/10/08 22:32:29;;;;;;;0.10;0.10;;;;;;;-145.06;100.00;56082.19;10405419;28;19909;-68
2023/10/08 22:38:00;;;;;;;0.10;0.10;;;;;;;-145.06;100.00;56096.38;10410508;28;20020;-68
2023/10/08 22:42:55;;;;;;;0.00;0.00;;;;;;;-145.06;100.00;56068.00;10408809;28;20029;-68
2023/10/08 22:48:05;;;;;;;0.10;0.10;;;;;;;-145.06;100.00;56029.50;10407355;28;20029;-68
2023/10/08 22:53:06;;;;;;;0.10;0.10;;;;;;;-145.06;100.00;56057.88;10407482;28;20022;-68
2023/10/08 22:58:08;;;;;;;0.10;0.10;;;;;;;-145.06;100.00;56049.75;10405054;28;20033;-68
2023/10/08 23:03:11;;;;;;;0.10;0.10;;;;;;;-145.06;100.00;56096.38;10409148;28;20025;-67
2023/10/08 23:08:12;;;;;;;0.10;0.10;;;;;;;-145.06;100.00;56070.03;10387635;28;20521;-67
2023/10/08 23:13:13;;;;;;;0.10;0.10;;;;;;;-145.06;100.00;56065.97;10409873;28;20104;-67
2023/10/08 23:18:13;;;;;;;0.03;0.03;;;;;;;-145.06;100.00;56102.44;10400816;28;20100;-67
2023/10/08 23:23:15;;;;;;;0.10;0.10;;;;;;;-145.06;100.00;56088.25;10407635;28;20022;-67
2023/10/08 23:28:16;;;;;;;0.10;0.10;;;;;;;-145.06;100.00;56114.59;10408054;28;20049;-68